Terminal Aerodrome Forecast
Issued by NWS

Home | Current Version | Previous Version | Text Only | Print | Product List | Glossary On
Versions: 1 2 3 4 5 6 7 8 9 10 11 12 13 14 15 16 17 18 19 20 21 22 23 24 25 26
000
FTUS43 KLOT 180529
TAFDPA
TAF
KDPA 180529Z 1806/1906 28010KT P6SM FEW025 BKN050
     FM181500 29012G19KT P6SM SCT040
     FM190100 29006KT P6SM SCT040 OVC070=

USA.gov is the U.S. government's official web portal to all federal, state and local government web resources and services.